Flight Track Log - Related Links

Times and Time Zones

All times are in EDT time to prevent confusion due to time zone crossing. See the CLH1011 flight status page for this flight to view local times or setup timezone preferences in your user account.

Time Position Orientation Groundspeed Altitude Reporting Facility
EDT Latitude Longitude Course Direction KTS MPH feet Rate Location/Type
Sun 07:43:00 AM 50.8769 4.6098 107° East  Level Estimated
Sun 07:44:00 AM 50.8523 4.7351 107° East  Level Estimated
Sun 07:45:00 AM 50.8276 4.8603 107° East  Level Estimated
Sun 07:46:00 AM 50.8027 4.9853 108° East  Level Estimated
Sun 07:47:00 AM 50.7614 5.1912 108° East  Level Estimated
Sun 07:48:00 AM 50.7197 5.3968 108° East  Level Estimated
Sun 07:49:00 AM 50.6777 5.6021 108° East  Level Estimated
Sun 07:50:00 AM 50.6353 5.8069 108° East  Level Estimated
Sun 07:51:00 AM 50.5925 6.0114 108° East  Level Estimated
Sun 07:52:00 AM 50.5494 6.2155 108° East  Level Estimated
Sun 07:53:00 AM 50.5277 6.3175 109° East  Level Estimated
Sun 07:54:00 AM 50.5059 6.4193 109° East  Level Estimated
Sun 07:55:00 AM 50.4841 6.5210 109° East  Level Estimated
Sun 07:56:00 AM 50.4621 6.6227 109° East  Level Estimated
Sun 07:57:00 AM 50.4400 6.7242 109° East  Level Estimated
Sun 07:58:00 AM 50.4179 6.8256 109° East  Level Estimated
Sun 07:59:00 AM 50.3957 6.9270 109° East  Level Estimated
Sun 08:00:00 AM 50.3734 7.0283 109° East  Level Estimated
Sun 08:01:00 AM 50.3510 7.1294 109° East  Level Estimated
Sun 08:02:00 AM 50.3285 7.2305 109° East  Level Estimated
Sun 08:03:00 AM 50.3059 7.3314 109° East  Level Estimated
Sun 08:04:00 AM 50.2832 7.4323 109° East  Level Estimated
Sun 08:05:00 AM 50.2605 7.5331 109° East  Level Estimated
Sun 08:06:00 AM 50.2377 7.6338 110° East  Level Estimated
Sun 08:07:00 AM 50.2099 7.7557 110° East  Level Estimated
Sun 08:08:00 AM 50.1819 7.8775 110° East  Level Estimated
Sun 08:09:00 AM 50.1539 7.9991 110° East  Level Estimated
Sun 08:10:00 AM 50.1257 8.1206 110° East  Level Estimated
Sun 08:11:00 AM 50.0974 8.2419 110° East  Level Estimated
Sun 08:12:00 AM 50.0690 8.3631 110° East  Level Estimated
Sun 08:13:00 AM 50.0404 8.4842 110° East  Level Estimated
Sun 08:14:00 AM 50.0117 8.6051 290° West  Level Estimated
Sun 08:15:00 AM 50.0404 8.4842 110° East  Level Estimated
Sun 08:16:00 AM 50.0117 8.6051 290° West  Level Estimated
Sun 08:17:00 AM 50.0404 8.4842 110° East  Level Estimated
Sun 08:18:00 AM 50.0117 8.6051 290° West  Level Estimated
Sun 08:19:00 AM 50.0404 8.4842 110° East  Level Estimated
Sun 08:20:00 AM 50.0117 8.6051 290° West  Level Estimated
Sun 08:21:00 AM 50.0404 8.4842 110° East  Level Estimated
Sun 08:22:00 AM 50.0117 8.6051 290° West  Level Estimated
Sun 08:23:00 AM 50.0404 8.4842 110° East  Level Estimated
Sun 08:24:00 AM 50.0117 8.6051 290° West  Level Estimated
Sun 08:25:00 AM 50.0404 8.4842 110° East  Level Estimated
Sun 08:26:00 AM 50.0117 8.6051 110° East  Level Estimated

Login

Don't have an account? Register now (free) for customized features, flight alerts, and more!